createdAt,value
2023-04-08T00:01:02.868Z,8.54
2023-04-08T00:03:31.107Z,8.52
2023-04-08T00:06:00.904Z,8.49
2023-04-08T00:08:29.037Z,8.49
2023-04-08T00:10:57.038Z,8.49
2023-04-08T00:13:25.104Z,8.52
2023-04-08T00:15:53.249Z,8.56
2023-04-08T00:18:21.550Z,8.57
2023-04-08T00:20:49.751Z,8.59
2023-04-08T00:23:18.302Z,8.60
2023-04-08T00:25:46.291Z,8.60
2023-04-08T00:28:14.442Z,8.60
2023-04-08T00:30:42.532Z,8.60
2023-04-08T00:33:10.632Z,8.60
2023-04-08T00:35:40.076Z,8.58
2023-04-08T00:38:08.777Z,8.58
2023-04-08T00:40:36.743Z,8.59
2023-04-08T00:43:05.717Z,8.60
2023-04-08T00:45:34.092Z,8.61
2023-04-08T00:48:03.807Z,8.62
2023-04-08T00:50:32.210Z,8.63
2023-04-08T00:53:00.155Z,8.63
2023-04-08T00:55:28.239Z,8.63
2023-04-08T00:57:56.731Z,8.63
2023-04-08T01:00:24.814Z,8.65
2023-04-08T01:03:16.789Z,8.67
2023-04-08T01:05:54.145Z,8.65
2023-04-08T01:08:25.522Z,8.66
2023-04-08T01:10:58.830Z,8.67
2023-04-08T01:13:30.066Z,8.67
2023-04-08T01:15:59.615Z,8.66
2023-04-08T01:18:29.480Z,8.64
2023-04-08T01:20:59.532Z,8.62
2023-04-08T01:23:30.572Z,8.60
2023-04-08T01:25:58.828Z,8.61
2023-04-08T01:28:30.673Z,8.64
2023-04-08T01:31:02.459Z,8.65
2023-04-08T01:33:32.054Z,8.66
2023-04-08T01:36:01.101Z,8.68
2023-04-08T01:38:29.674Z,8.70
2023-04-08T01:40:58.193Z,8.72
2023-04-08T01:43:27.332Z,8.73
2023-04-08T01:45:58.754Z,8.75
2023-04-08T01:48:28.356Z,8.76
2023-04-08T01:50:58.677Z,8.78
2023-04-08T01:53:26.845Z,8.78
2023-04-08T01:56:03.992Z,8.80
2023-04-08T01:58:39.421Z,8.78
2023-04-08T02:01:12.309Z,8.79
2023-04-08T02:03:44.559Z,8.79
2023-04-08T02:06:12.954Z,8.78
2023-04-08T02:08:40.900Z,8.79
2023-04-08T02:11:09.072Z,8.82
2023-04-08T02:13:37.254Z,8.84
2023-04-08T02:16:31.360Z,8.85
2023-04-08T02:19:06.685Z,8.84
2023-04-08T02:21:50.400Z,8.89
2023-04-08T02:24:19.172Z,8.90
2023-04-08T02:26:49.324Z,8.92
2023-04-08T02:29:19.206Z,8.95
2023-04-08T02:31:48.785Z,8.96
2023-04-08T02:34:18.336Z,8.98
2023-04-08T02:36:47.521Z,9.01
2023-04-08T02:39:15.668Z,9.06
2023-04-08T02:41:43.618Z,9.10
2023-04-08T02:44:11.591Z,9.12
2023-04-08T02:46:41.764Z,9.12
2023-04-08T02:49:09.737Z,9.10
2023-04-08T02:51:37.812Z,9.08
2023-04-08T02:54:06.642Z,9.05
2023-04-08T02:56:34.657Z,9.02
2023-04-08T02:59:02.641Z,8.99
2023-04-08T03:01:31.557Z,8.96
2023-04-08T03:03:59.670Z,8.93
2023-04-08T03:06:28.010Z,8.91
2023-04-08T03:08:56.035Z,8.89
2023-04-08T03:11:26.424Z,8.87
2023-04-08T03:13:54.425Z,8.84
2023-04-08T03:16:22.538Z,8.81
2023-04-08T03:18:51.817Z,8.76
2023-04-08T03:21:19.971Z,8.71
2023-04-08T03:23:48.038Z,8.66
2023-04-08T03:26:16.517Z,8.60
2023-04-08T03:28:44.488Z,8.53
2023-04-08T03:31:12.866Z,8.48
2023-04-08T03:33:41.042Z,8.44
2023-04-08T03:36:09.083Z,8.37
2023-04-08T03:38:37.485Z,8.31
2023-04-08T03:41:05.820Z,8.23
2023-04-08T03:43:35.163Z,8.15
2023-04-08T03:46:04.464Z,8.09
2023-04-08T03:48:32.645Z,8.04
2023-04-08T03:51:00.913Z,7.99
2023-04-08T03:53:29.526Z,7.93
2023-04-08T03:55:57.921Z,7.88
2023-04-08T03:58:26.499Z,7.84
2023-04-08T04:00:54.429Z,7.80
2023-04-08T04:03:22.965Z,7.76
2023-04-08T04:05:51.380Z,7.75
2023-04-08T04:08:19.350Z,7.74
2023-04-08T04:10:47.240Z,7.73
2023-04-08T04:13:15.205Z,7.72
2023-04-08T04:15:43.141Z,7.70
2023-04-08T04:18:11.506Z,7.67
2023-04-08T04:20:43.420Z,7.65
2023-04-08T04:23:11.659Z,7.64
2023-04-08T04:25:42.949Z,7.63
2023-04-08T04:28:11.016Z,7.64
2023-04-08T04:30:40.489Z,7.66
2023-04-08T04:33:08.457Z,7.71
2023-04-08T04:35:36.414Z,7.77
2023-04-08T04:38:05.940Z,7.83
2023-04-08T04:40:33.992Z,7.88
2023-04-08T04:43:02.672Z,7.93
2023-04-08T04:45:30.649Z,7.96
2023-04-08T04:47:58.682Z,7.97
2023-04-08T04:50:26.785Z,7.96
2023-04-08T04:52:54.856Z,7.94
2023-04-08T04:55:23.028Z,7.96
2023-04-08T04:57:50.994Z,7.99
2023-04-08T05:00:18.924Z,8.06
2023-04-08T05:02:47.119Z,8.14
2023-04-08T05:05:15.588Z,8.23
2023-04-08T05:07:43.798Z,8.56
2023-04-08T05:10:11.806Z,9.14
2023-04-08T05:12:39.847Z,9.81
2023-04-08T05:15:08.057Z,10.44
2023-04-08T05:17:36.348Z,11.00
2023-04-08T05:20:05.303Z,11.35
2023-04-08T05:22:33.348Z,11.58
2023-04-08T05:25:01.398Z,11.69
2023-04-08T05:27:29.487Z,11.72
2023-04-08T05:29:57.709Z,11.81
2023-04-08T05:32:25.906Z,11.82
2023-04-08T05:34:54.020Z,11.79
2023-04-08T05:37:22.082Z,11.69
2023-04-08T05:39:50.057Z,11.57
2023-04-08T05:42:18.124Z,11.60
2023-04-08T05:44:46.167Z,11.88
2023-04-08T05:47:14.985Z,12.15
2023-04-08T05:49:43.054Z,12.21
2023-04-08T05:52:10.974Z,12.29
2023-04-08T05:54:38.886Z,12.41
2023-04-08T05:57:08.130Z,12.49
2023-04-08T05:59:38.268Z,12.46
2023-04-08T06:02:06.386Z,12.30
2023-04-08T06:04:34.840Z,12.11
2023-04-08T06:07:04.109Z,11.99
2023-04-08T06:09:36.505Z,11.91
2023-04-08T06:12:05.505Z,11.87
2023-04-08T06:14:33.432Z,11.83
2023-04-08T06:17:01.457Z,11.89
2023-04-08T06:19:29.598Z,11.91
2023-04-08T06:21:59.138Z,11.77
2023-04-08T06:24:29.422Z,11.55
2023-04-08T06:26:57.496Z,11.44
2023-04-08T06:29:25.448Z,11.42
2023-04-08T06:31:53.374Z,11.52
2023-04-08T06:34:21.382Z,11.47
2023-04-08T06:36:50.387Z,11.39
2023-04-08T06:39:19.512Z,11.29
2023-04-08T06:41:47.656Z,11.20
2023-04-08T06:44:26.830Z,11.05
2023-04-08T06:46:54.787Z,10.92
2023-04-08T06:49:22.740Z,10.79
2023-04-08T06:51:50.722Z,10.72
2023-04-08T06:54:18.735Z,10.67
2023-04-08T06:56:47.050Z,10.67
2023-04-08T06:59:15.082Z,10.71
2023-04-08T07:01:43.177Z,10.74
2023-04-08T07:04:11.596Z,10.77
2023-04-08T07:06:39.644Z,10.75
2023-04-08T07:09:08.136Z,10.71
2023-04-08T07:11:36.269Z,10.69
2023-04-08T07:14:04.173Z,10.64
2023-04-08T07:16:32.153Z,10.58
2023-04-08T07:19:00.121Z,10.53
2023-04-08T07:21:28.106Z,10.46
2023-04-08T07:23:56.250Z,10.44
2023-04-08T07:26:24.197Z,10.49
2023-04-08T07:28:53.489Z,10.54
2023-04-08T07:31:21.756Z,10.60
2023-04-08T07:33:49.992Z,10.70
2023-04-08T07:36:18.667Z,10.77
2023-04-08T07:38:46.905Z,10.80
2023-04-08T07:41:14.887Z,10.82
2023-04-08T07:43:42.804Z,10.87
2023-04-08T07:46:10.858Z,10.93
2023-04-08T07:48:38.948Z,10.94
2023-04-08T07:51:10.898Z,11.00
2023-04-08T07:53:40.542Z,11.06
2023-04-08T07:56:13.760Z,11.13
2023-04-08T07:58:42.651Z,11.22
2023-04-08T08:01:22.610Z,11.33
2023-04-08T08:03:53.029Z,11.39
2023-04-08T08:06:22.362Z,11.42
2023-04-08T08:08:50.547Z,11.47
2023-04-08T08:11:18.952Z,11.52
2023-04-08T08:13:47.105Z,11.52
2023-04-08T08:16:15.156Z,11.56
2023-04-08T08:18:43.135Z,11.64
2023-04-08T08:21:11.386Z,11.72
2023-04-08T08:23:39.425Z,11.80
2023-04-08T08:26:12.324Z,11.88
2023-04-08T08:28:40.397Z,11.98
2023-04-08T08:31:08.538Z,12.07
2023-04-08T08:33:36.624Z,12.15
2023-04-08T08:36:05.778Z,12.21
2023-04-08T08:38:34.021Z,12.31
2023-04-08T08:41:04.368Z,12.41
2023-04-08T08:43:33.761Z,12.52
2023-04-08T08:46:01.974Z,12.69
2023-04-08T08:48:30.101Z,12.85
2023-04-08T08:50:58.005Z,12.95
2023-04-08T08:53:35.153Z,13.08
2023-04-08T08:56:17.858Z,13.23
2023-04-08T08:58:47.965Z,13.43
2023-04-08T09:01:36.297Z,13.64
2023-04-08T09:04:20.359Z,13.82
2023-04-08T09:06:51.200Z,13.91
2023-04-08T09:09:19.800Z,13.98
2023-04-08T09:11:48.117Z,14.06
2023-04-08T09:14:26.440Z,14.13
2023-04-08T09:16:54.577Z,14.25
2023-04-08T09:19:22.736Z,14.33
2023-04-08T09:22:10.629Z,14.40
2023-04-08T09:24:38.902Z,14.43
2023-04-08T09:27:07.121Z,14.40
2023-04-08T09:29:38.192Z,14.40
2023-04-08T09:32:07.332Z,14.46
2023-04-08T09:34:35.483Z,14.51
2023-04-08T09:37:03.402Z,14.54
2023-04-08T09:39:31.728Z,14.61
2023-04-08T09:42:04.804Z,14.63
2023-04-08T09:44:34.944Z,14.64
2023-04-08T09:47:11.364Z,14.65
2023-04-08T09:49:46.930Z,14.69
2023-04-08T09:52:24.548Z,14.70
2023-04-08T09:55:08.677Z,14.67
2023-04-08T09:57:42.713Z,14.65
2023-04-08T10:00:15.531Z,14.67
2023-04-08T10:03:11.130Z,14.67
2023-04-08T10:05:41.694Z,14.63
2023-04-08T10:08:10.821Z,14.63
2023-04-08T10:10:40.860Z,14.56
2023-04-08T10:13:09.338Z,14.55
2023-04-08T10:15:38.578Z,14.54
2023-04-08T10:18:09.264Z,14.58
2023-04-08T10:20:37.217Z,14.65
2023-04-08T10:23:09.609Z,14.73
2023-04-08T10:25:39.328Z,14.83
2023-04-08T10:28:13.208Z,14.89
2023-04-08T10:30:46.089Z,14.89
2023-04-08T10:33:21.161Z,14.87
2023-04-08T10:36:06.378Z,14.80
2023-04-08T10:38:34.462Z,14.71
2023-04-08T10:41:02.855Z,14.68
2023-04-08T10:43:35.057Z,14.67
2023-04-08T10:46:04.894Z,14.62
2023-04-08T10:48:32.971Z,14.59
2023-04-08T10:51:05.893Z,14.59
2023-04-08T10:53:35.926Z,14.61
2023-04-08T10:56:07.608Z,14.61
2023-04-08T10:58:37.244Z,14.57
2023-04-08T11:01:07.169Z,14.55
2023-04-08T11:03:37.220Z,14.54
2023-04-08T11:06:18.437Z,14.52
2023-04-08T11:08:47.554Z,14.53
2023-04-08T11:11:15.565Z,14.48
2023-04-08T11:13:53.426Z,14.45
2023-04-08T11:16:23.248Z,14.42
2023-04-08T11:18:52.137Z,14.40
2023-04-08T11:21:22.359Z,14.40
2023-04-08T11:23:52.275Z,14.40
2023-04-08T11:26:21.239Z,14.45
2023-04-08T11:28:51.085Z,14.50
2023-04-08T11:31:22.742Z,14.54
2023-04-08T11:33:55.502Z,14.60
2023-04-08T11:36:23.521Z,14.61
2023-04-08T11:38:54.439Z,14.62
2023-04-08T11:41:23.104Z,14.63
2023-04-08T11:43:55.815Z,14.64
2023-04-08T11:46:24.715Z,14.66
2023-04-08T11:49:07.078Z,14.66
2023-04-08T11:51:36.435Z,14.64
2023-04-08T11:54:06.683Z,14.62
2023-04-08T11:56:47.082Z,14.57
2023-04-08T11:59:15.701Z,14.53
2023-04-08T12:01:43.820Z,14.56
2023-04-08T12:04:12.255Z,14.61
2023-04-08T12:06:43.680Z,14.61
2023-04-08T12:09:11.680Z,14.60
2023-04-08T12:11:39.678Z,14.62
2023-04-08T12:14:08.048Z,14.67
2023-04-08T12:16:36.479Z,14.68
2023-04-08T12:19:04.712Z,14.70
2023-04-08T12:21:34.051Z,14.71
2023-04-08T12:24:02.179Z,14.72
2023-04-08T12:26:30.253Z,14.72
2023-04-08T12:28:58.219Z,14.71
2023-04-08T12:31:27.943Z,14.72
2023-04-08T12:33:55.998Z,14.70
2023-04-08T12:36:24.024Z,14.68
2023-04-08T12:38:52.439Z,14.67
2023-04-08T12:41:20.874Z,14.68
2023-04-08T12:43:49.100Z,14.72
2023-04-08T12:46:17.132Z,14.75
2023-04-08T12:48:56.440Z,14.76
2023-04-08T12:51:31.183Z,14.77
2023-04-08T12:54:00.559Z,14.80
2023-04-08T12:56:28.494Z,14.83
2023-04-08T12:58:57.773Z,14.86
2023-04-08T13:01:25.911Z,14.88
2023-04-08T13:03:54.825Z,14.90
2023-04-08T13:06:23.306Z,14.93
2023-04-08T13:08:51.578Z,14.97
2023-04-08T13:11:19.894Z,15.00
2023-04-08T13:13:47.973Z,15.03
2023-04-08T13:16:16.492Z,15.04
2023-04-08T13:18:44.633Z,15.08
2023-04-08T13:21:12.639Z,15.14
2023-04-08T13:23:40.662Z,15.17
2023-04-08T13:26:08.836Z,15.20
2023-04-08T13:28:49.743Z,15.22
2023-04-08T13:31:24.480Z,15.22
2023-04-08T13:33:53.980Z,15.21
2023-04-08T13:36:23.424Z,15.21
2023-04-08T13:38:52.227Z,15.21
2023-04-08T13:41:21.418Z,15.17
2023-04-08T13:43:50.536Z,15.17
2023-04-08T13:46:18.658Z,15.20
2023-04-08T13:48:46.665Z,15.23
2023-04-08T13:51:14.693Z,15.27
2023-04-08T13:53:42.833Z,15.30
2023-04-08T13:56:10.838Z,15.35
2023-04-08T13:58:39.035Z,15.41
2023-04-08T14:01:07.223Z,15.43
2023-04-08T14:03:35.158Z,15.47
2023-04-08T14:06:03.184Z,15.50
2023-04-08T14:08:31.227Z,15.55
2023-04-08T14:10:59.356Z,15.59
2023-04-08T14:13:28.153Z,15.63
2023-04-08T14:15:58.606Z,15.66
2023-04-08T14:18:27.519Z,15.69
2023-04-08T14:20:56.406Z,15.72
2023-04-08T14:23:24.497Z,15.73
2023-04-08T14:25:52.478Z,15.75
2023-04-08T14:28:20.493Z,15.78
2023-04-08T14:30:48.592Z,15.79
2023-04-08T14:33:16.629Z,15.79
2023-04-08T14:35:44.586Z,15.76
2023-04-08T14:38:12.769Z,15.70
2023-04-08T14:40:40.805Z,15.64
2023-04-08T14:43:08.810Z,15.58
2023-04-08T14:45:36.895Z,15.48
2023-04-08T14:48:04.867Z,15.43
2023-04-08T14:50:32.920Z,15.41
2023-04-08T14:53:01.238Z,15.41
2023-04-08T14:55:30.221Z,15.38
2023-04-08T14:58:00.529Z,15.35
2023-04-08T15:00:29.089Z,15.31
2023-04-08T15:02:57.165Z,15.31
2023-04-08T15:05:25.333Z,15.30
2023-04-08T15:07:54.305Z,15.28
2023-04-08T15:10:22.249Z,15.21
2023-04-08T15:12:50.272Z,15.18
2023-04-08T15:15:18.245Z,15.15
2023-04-08T15:17:46.729Z,15.15
2023-04-08T15:20:14.783Z,15.16
2023-04-08T15:22:42.711Z,15.16
2023-04-08T15:25:11.019Z,15.10
2023-04-08T15:27:39.502Z,15.04
2023-04-08T15:30:07.876Z,14.99
2023-04-08T15:32:35.953Z,14.94
2023-04-08T15:35:04.083Z,14.91
2023-04-08T15:37:32.402Z,14.93
2023-04-08T15:40:00.502Z,14.93
2023-04-08T15:42:28.547Z,14.91
2023-04-08T15:44:56.614Z,14.88
2023-04-08T15:47:24.713Z,14.86
2023-04-08T15:49:53.106Z,14.84
2023-04-08T15:52:21.126Z,14.79
2023-04-08T15:54:49.112Z,14.74
2023-04-08T15:57:17.376Z,14.71
2023-04-08T15:59:45.758Z,14.66
2023-04-08T16:02:13.905Z,14.61
2023-04-08T16:04:42.929Z,14.57
2023-04-08T16:07:11.285Z,14.54
2023-04-08T16:09:39.369Z,14.47
2023-04-08T16:12:07.388Z,14.39
2023-04-08T16:14:35.400Z,14.31
2023-04-08T16:17:03.473Z,14.27
2023-04-08T16:19:32.569Z,14.25
2023-04-08T16:22:00.538Z,14.22
2023-04-08T16:24:28.620Z,14.18
2023-04-08T16:26:57.902Z,14.11
2023-04-08T16:29:26.078Z,14.05
2023-04-08T16:31:55.155Z,13.98
2023-04-08T16:34:23.349Z,13.93
2023-04-08T16:36:51.931Z,13.88
2023-04-08T16:39:19.935Z,13.82
2023-04-08T16:41:47.892Z,13.74
2023-04-08T16:44:16.211Z,13.68
2023-04-08T16:46:44.150Z,13.66
2023-04-08T16:49:14.512Z,13.61
2023-04-08T16:51:43.733Z,13.50
2023-04-08T16:54:11.699Z,13.39
2023-04-08T16:56:44.510Z,13.31
2023-04-08T16:59:13.476Z,13.26
2023-04-08T17:01:41.693Z,13.19
2023-04-08T17:04:10.310Z,13.12
2023-04-08T17:06:41.316Z,13.04
2023-04-08T17:09:09.789Z,12.96
2023-04-08T17:11:37.739Z,12.87
2023-04-08T17:14:05.806Z,12.80
2023-04-08T17:16:33.867Z,12.72
2023-04-08T17:19:02.135Z,12.64
2023-04-08T17:21:30.084Z,12.53
2023-04-08T17:23:58.279Z,12.45
2023-04-08T17:26:26.563Z,12.39
2023-04-08T17:28:54.780Z,12.33
2023-04-08T17:31:23.029Z,12.26
2023-04-08T17:33:51.520Z,12.22
2023-04-08T17:36:19.639Z,12.17
2023-04-08T17:38:49.480Z,12.13
2023-04-08T17:41:29.840Z,12.11
2023-04-08T17:44:03.935Z,12.02
2023-04-08T17:46:33.434Z,11.94
2023-04-08T17:49:01.624Z,11.87
2023-04-08T17:51:31.089Z,11.81
2023-04-08T17:53:59.090Z,11.76
2023-04-08T17:56:28.506Z,11.71
2023-04-08T17:58:56.489Z,11.69
2023-04-08T18:01:24.537Z,11.68
2023-04-08T18:03:52.893Z,11.64
2023-04-08T18:06:21.191Z,11.59
2023-04-08T18:08:49.570Z,11.55
2023-04-08T18:11:17.631Z,11.50
2023-04-08T18:13:46.228Z,11.46
2023-04-08T18:16:18.270Z,11.40
2023-04-08T18:18:47.122Z,11.33
2023-04-08T18:21:17.936Z,11.26
2023-04-08T18:23:49.258Z,11.24
2023-04-08T18:26:17.624Z,11.20
2023-04-08T18:28:46.318Z,11.17
2023-04-08T18:31:14.450Z,11.15
2023-04-08T18:33:42.766Z,11.14
2023-04-08T18:36:12.800Z,11.14
2023-04-08T18:38:41.259Z,11.13
2023-04-08T18:41:09.547Z,11.12
2023-04-08T18:43:37.703Z,11.11
2023-04-08T18:46:06.150Z,11.08
2023-04-08T18:48:34.374Z,11.05
2023-04-08T18:51:02.527Z,11.02
2023-04-08T18:53:30.786Z,11.00
2023-04-08T18:55:58.980Z,10.98
2023-04-08T18:58:29.911Z,10.97
2023-04-08T19:00:58.294Z,10.93
2023-04-08T19:03:27.385Z,10.89
2023-04-08T19:05:55.676Z,10.85
2023-04-08T19:08:23.965Z,10.82
2023-04-08T19:10:52.009Z,10.78
2023-04-08T19:13:19.985Z,10.74
2023-04-08T19:15:47.934Z,10.68
2023-04-08T19:18:16.053Z,10.63
2023-04-08T19:20:44.323Z,10.59
2023-04-08T19:23:12.792Z,10.54
2023-04-08T19:25:40.938Z,10.51
2023-04-08T19:28:09.536Z,10.47
2023-04-08T19:30:38.716Z,10.42
2023-04-08T19:33:10.746Z,10.38
2023-04-08T19:35:38.961Z,10.34
2023-04-08T19:38:06.980Z,10.29
2023-04-08T19:40:35.000Z,10.24
2023-04-08T19:43:02.927Z,10.20
2023-04-08T19:45:31.063Z,10.15
2023-04-08T19:47:59.131Z,10.10
2023-04-08T19:50:27.989Z,10.05
2023-04-08T19:52:56.335Z,10.00
2023-04-08T19:55:24.608Z,9.94
2023-04-08T19:57:52.917Z,9.88
2023-04-08T20:00:21.079Z,9.82
2023-04-08T20:02:49.519Z,9.76
2023-04-08T20:05:17.951Z,9.70
2023-04-08T20:07:46.150Z,9.64
2023-04-08T20:10:14.644Z,9.58
2023-04-08T20:12:42.716Z,9.52
2023-04-08T20:15:22.868Z,9.48
2023-04-08T20:17:52.936Z,9.41
2023-04-08T20:20:21.484Z,9.36
2023-04-08T20:22:49.716Z,9.32
2023-04-08T20:25:17.981Z,9.27
2023-04-08T20:27:46.154Z,9.21
2023-04-08T20:30:14.305Z,9.16
2023-04-08T20:32:42.856Z,9.09
2023-04-08T20:35:11.199Z,9.00
2023-04-08T20:37:39.229Z,8.92
2023-04-08T20:40:08.257Z,8.84
2023-04-08T20:42:36.564Z,8.77
2023-04-08T20:45:05.042Z,8.68
2023-04-08T20:47:33.594Z,8.60
2023-04-08T20:50:01.655Z,8.50
2023-04-08T20:52:29.984Z,8.36
2023-04-08T20:54:58.029Z,8.24
2023-04-08T20:57:26.295Z,8.10
2023-04-08T20:59:54.261Z,7.97
2023-04-08T21:02:22.889Z,7.88
2023-04-08T21:04:51.102Z,7.83
2023-04-08T21:07:19.079Z,7.79
2023-04-08T21:09:48.641Z,7.74
2023-04-08T21:12:16.653Z,7.70
2023-04-08T21:14:45.960Z,7.63
2023-04-08T21:17:14.020Z,7.57
2023-04-08T21:19:42.104Z,7.53
2023-04-08T21:22:10.328Z,7.53
2023-04-08T21:24:38.438Z,7.52
2023-04-08T21:27:06.608Z,7.51
2023-04-08T21:29:34.521Z,7.51
2023-04-08T21:32:02.525Z,7.48
2023-04-08T21:34:31.186Z,7.47
2023-04-08T21:36:59.192Z,7.48
2023-04-08T21:39:27.166Z,7.50
2023-04-08T21:41:55.097Z,7.50
2023-04-08T21:44:23.599Z,7.51
2023-04-08T21:46:51.585Z,7.50
2023-04-08T21:49:19.547Z,7.49
2023-04-08T21:51:47.620Z,7.48
2023-04-08T21:54:15.789Z,7.49
2023-04-08T21:56:43.800Z,7.50
2023-04-08T21:59:11.729Z,7.50
2023-04-08T22:01:39.794Z,7.48
2023-04-08T22:04:07.999Z,7.49
2023-04-08T22:06:36.446Z,7.50
2023-04-08T22:09:04.442Z,7.48
2023-04-08T22:11:32.391Z,7.48
2023-04-08T22:14:00.365Z,7.41
2023-04-08T22:16:28.426Z,7.38
2023-04-08T22:18:56.608Z,7.33
2023-04-08T22:21:25.388Z,7.29
2023-04-08T22:23:53.352Z,7.25
2023-04-08T22:26:21.647Z,7.23
2023-04-08T22:28:49.998Z,7.23
2023-04-08T22:31:18.390Z,7.25
2023-04-08T22:33:46.712Z,7.30
2023-04-08T22:36:14.741Z,7.32
2023-04-08T22:38:42.803Z,7.26
2023-04-08T22:41:18.981Z,7.25
2023-04-08T22:43:47.951Z,7.22
2023-04-08T22:46:18.320Z,7.24
2023-04-08T22:48:46.744Z,7.26
2023-04-08T22:51:14.830Z,7.29
2023-04-08T22:53:42.829Z,7.32
2023-04-08T22:56:10.875Z,7.35
2023-04-08T22:58:39.048Z,7.37
2023-04-08T23:01:17.962Z,7.37
2023-04-08T23:03:46.162Z,7.37
2023-04-08T23:06:14.143Z,7.36
2023-04-08T23:08:42.430Z,7.32
2023-04-08T23:11:10.571Z,7.28
2023-04-08T23:13:38.628Z,7.27
2023-04-08T23:16:07.046Z,7.26
2023-04-08T23:18:35.041Z,7.26
2023-04-08T23:21:03.141Z,7.25
2023-04-08T23:23:31.216Z,7.24
2023-04-08T23:25:59.179Z,7.25
2023-04-08T23:28:27.241Z,7.27
2023-04-08T23:30:55.167Z,7.25
2023-04-08T23:33:23.233Z,7.22
2023-04-08T23:35:51.446Z,7.22
2023-04-08T23:38:19.568Z,7.23
2023-04-08T23:40:47.611Z,7.25
2023-04-08T23:43:15.675Z,7.27
2023-04-08T23:45:43.646Z,7.26
2023-04-08T23:48:11.625Z,7.25
2023-04-08T23:50:39.681Z,7.24
2023-04-08T23:53:07.755Z,7.26
2023-04-08T23:55:35.689Z,7.27
2023-04-08T23:58:03.579Z,7.27
